sensor_id;sensor_type;location;lat;lon;timestamp;P1;durP1;ratioP1;P2;durP2;ratioP2
45764;SDS011;31474;45.332;10.230;2023-01-26T00:00:54;24.80;;;14.70;;
45764;SDS011;31474;45.332;10.230;2023-01-26T00:03:20;26.02;;;14.70;;
45764;SDS011;31474;45.332;10.230;2023-01-26T00:05:46;23.48;;;13.52;;
45764;SDS011;31474;45.332;10.230;2023-01-26T00:08:12;22.25;;;13.77;;
45764;SDS011;31474;45.332;10.230;2023-01-26T00:10:39;24.85;;;13.68;;
45764;SDS011;31474;45.332;10.230;2023-01-26T00:13:05;21.05;;;12.80;;
45764;SDS011;31474;45.332;10.230;2023-01-26T00:15:32;22.25;;;14.20;;
45764;SDS011;31474;45.332;10.230;2023-01-26T00:17:59;24.05;;;13.38;;
45764;SDS011;31474;45.332;10.230;2023-01-26T00:20:25;24.63;;;14.50;;
45764;SDS011;31474;45.332;10.230;2023-01-26T00:22:51;34.15;;;17.75;;
45764;SDS011;31474;45.332;10.230;2023-01-26T00:25:17;23.65;;;14.32;;
45764;SDS011;31474;45.332;10.230;2023-01-26T00:27:43;19.98;;;13.52;;
45764;SDS011;31474;45.332;10.230;2023-01-26T00:30:09;18.55;;;13.48;;
45764;SDS011;31474;45.332;10.230;2023-01-26T00:32:35;19.35;;;12.80;;
45764;SDS011;31474;45.332;10.230;2023-01-26T00:35:01;18.33;;;13.57;;
45764;SDS011;31474;45.332;10.230;2023-01-26T00:37:27;18.65;;;12.50;;
45764;SDS011;31474;45.332;10.230;2023-01-26T00:39:53;18.08;;;12.48;;
45764;SDS011;31474;45.332;10.230;2023-01-26T00:42:18;19.58;;;13.10;;
45764;SDS011;31474;45.332;10.230;2023-01-26T00:44:45;19.60;;;13.20;;
45764;SDS011;31474;45.332;10.230;2023-01-26T00:47:11;24.90;;;14.32;;
45764;SDS011;31474;45.332;10.230;2023-01-26T00:49:37;21.88;;;13.07;;
45764;SDS011;31474;45.332;10.230;2023-01-26T00:52:03;19.73;;;13.75;;
45764;SDS011;31474;45.332;10.230;2023-01-26T00:54:30;24.20;;;14.40;;
45764;SDS011;31474;45.332;10.230;2023-01-26T00:56:56;19.27;;;12.55;;
45764;SDS011;31474;45.332;10.230;2023-01-26T00:59:21;19.48;;;13.20;;
45764;SDS011;31474;45.332;10.230;2023-01-26T01:01:47;20.42;;;13.32;;
45764;SDS011;31474;45.332;10.230;2023-01-26T01:04:13;17.48;;;11.73;;
45764;SDS011;31474;45.332;10.230;2023-01-26T01:06:39;24.73;;;14.52;;
45764;SDS011;31474;45.332;10.230;2023-01-26T01:09:05;21.73;;;14.05;;
45764;SDS011;31474;45.332;10.230;2023-01-26T01:11:30;24.45;;;14.75;;
45764;SDS011;31474;45.332;10.230;2023-01-26T01:13:56;22.55;;;13.35;;
45764;SDS011;31474;45.332;10.230;2023-01-26T01:16:22;29.42;;;17.52;;
45764;SDS011;31474;45.332;10.230;2023-01-26T01:18:51;21.15;;;13.13;;
45764;SDS011;31474;45.332;10.230;2023-01-26T01:21:21;26.95;;;15.93;;
45764;SDS011;31474;45.332;10.230;2023-01-26T01:23:48;18.70;;;12.35;;
45764;SDS011;31474;45.332;10.230;2023-01-26T01:26:14;21.05;;;12.70;;
45764;SDS011;31474;45.332;10.230;2023-01-26T01:28:40;19.77;;;11.75;;
45764;SDS011;31474;45.332;10.230;2023-01-26T01:31:08;20.90;;;12.98;;
45764;SDS011;31474;45.332;10.230;2023-01-26T01:33:36;22.25;;;14.00;;
45764;SDS011;31474;45.332;10.230;2023-01-26T01:36:04;23.20;;;13.63;;
45764;SDS011;31474;45.332;10.230;2023-01-26T01:38:31;21.05;;;11.73;;
45764;SDS011;31474;45.332;10.230;2023-01-26T01:40:57;21.05;;;11.82;;
45764;SDS011;31474;45.332;10.230;2023-01-26T01:43:23;23.05;;;13.30;;
45764;SDS011;31474;45.332;10.230;2023-01-26T01:45:50;19.92;;;12.68;;
45764;SDS011;31474;45.332;10.230;2023-01-26T01:51:10;18.55;;;11.30;;
45764;SDS011;31474;45.332;10.230;2023-01-26T01:53:47;17.00;;;11.88;;
45764;SDS011;31474;45.332;10.230;2023-01-26T01:56:17;15.70;;;11.02;;
45764;SDS011;31474;45.332;10.230;2023-01-26T01:58:47;17.70;;;11.88;;
45764;SDS011;31474;45.332;10.230;2023-01-26T02:01:17;26.52;;;14.18;;
45764;SDS011;31474;45.332;10.230;2023-01-26T02:03:43;16.10;;;10.65;;
45764;SDS011;31474;45.332;10.230;2023-01-26T02:06:15;20.10;;;11.95;;
45764;SDS011;31474;45.332;10.230;2023-01-26T02:08:47;24.38;;;14.55;;
45764;SDS011;31474;45.332;10.230;2023-01-26T02:11:35;22.45;;;12.25;;
45764;SDS011;31474;45.332;10.230;2023-01-26T02:14:06;16.08;;;11.63;;
45764;SDS011;31474;45.332;10.230;2023-01-26T02:16:33;21.50;;;11.88;;
45764;SDS011;31474;45.332;10.230;2023-01-26T02:18:59;22.42;;;13.15;;
45764;SDS011;31474;45.332;10.230;2023-01-26T02:21:25;18.83;;;12.38;;
45764;SDS011;31474;45.332;10.230;2023-01-26T02:26:22;19.17;;;11.23;;
45764;SDS011;31474;45.332;10.230;2023-01-26T02:28:51;18.27;;;10.95;;
45764;SDS011;31474;45.332;10.230;2023-01-26T02:31:17;18.35;;;11.93;;
45764;SDS011;31474;45.332;10.230;2023-01-26T02:33:43;19.40;;;11.20;;
45764;SDS011;31474;45.332;10.230;2023-01-26T02:36:10;16.98;;;10.50;;
45764;SDS011;31474;45.332;10.230;2023-01-26T02:41:11;19.35;;;10.60;;
45764;SDS011;31474;45.332;10.230;2023-01-26T02:44:03;17.30;;;10.60;;
45764;SDS011;31474;45.332;10.230;2023-01-26T02:46:31;14.13;;;9.00;;
45764;SDS011;31474;45.332;10.230;2023-01-26T02:48:56;14.95;;;8.73;;
45764;SDS011;31474;45.332;10.230;2023-01-26T02:51:41;16.83;;;9.18;;
45764;SDS011;31474;45.332;10.230;2023-01-26T02:54:06;13.57;;;7.93;;
45764;SDS011;31474;45.332;10.230;2023-01-26T02:56:32;16.30;;;8.95;;
45764;SDS011;31474;45.332;10.230;2023-01-26T02:59:02;14.52;;;8.30;;
45764;SDS011;31474;45.332;10.230;2023-01-26T03:01:28;13.05;;;7.85;;
45764;SDS011;31474;45.332;10.230;2023-01-26T03:03:53;12.73;;;7.93;;
45764;SDS011;31474;45.332;10.230;2023-01-26T03:06:19;13.70;;;8.02;;
45764;SDS011;31474;45.332;10.230;2023-01-26T03:08:44;15.65;;;8.13;;
45764;SDS011;31474;45.332;10.230;2023-01-26T03:11:10;12.52;;;7.18;;
45764;SDS011;31474;45.332;10.230;2023-01-26T03:13:36;13.20;;;7.60;;
45764;SDS011;31474;45.332;10.230;2023-01-26T03:16:04;12.00;;;7.60;;
45764;SDS011;31474;45.332;10.230;2023-01-26T03:18:32;14.20;;;6.90;;
45764;SDS011;31474;45.332;10.230;2023-01-26T03:21:17;11.05;;;6.97;;
45764;SDS011;31474;45.332;10.230;2023-01-26T03:24:01;13.43;;;6.70;;
45764;SDS011;31474;45.332;10.230;2023-01-26T03:26:46;9.00;;;5.85;;
45764;SDS011;31474;45.332;10.230;2023-01-26T03:29:30;10.77;;;6.50;;
45764;SDS011;31474;45.332;10.230;2023-01-26T03:31:56;15.95;;;7.75;;
45764;SDS011;31474;45.332;10.230;2023-01-26T03:34:23;12.23;;;6.32;;
45764;SDS011;31474;45.332;10.230;2023-01-26T03:36:49;11.15;;;6.20;;
45764;SDS011;31474;45.332;10.230;2023-01-26T03:39:14;10.82;;;5.97;;
45764;SDS011;31474;45.332;10.230;2023-01-26T03:41:59;10.93;;;5.95;;
45764;SDS011;31474;45.332;10.230;2023-01-26T03:44:44;11.02;;;5.78;;
45764;SDS011;31474;45.332;10.230;2023-01-26T03:47:30;13.48;;;6.25;;
45764;SDS011;31474;45.332;10.230;2023-01-26T03:50:14;14.20;;;6.68;;
45764;SDS011;31474;45.332;10.230;2023-01-26T03:52:59;11.73;;;7.10;;
45764;SDS011;31474;45.332;10.230;2023-01-26T03:55:44;13.63;;;6.68;;
45764;SDS011;31474;45.332;10.230;2023-01-26T03:58:28;9.88;;;5.38;;
45764;SDS011;31474;45.332;10.230;2023-01-26T04:00:54;12.75;;;5.88;;
45764;SDS011;31474;45.332;10.230;2023-01-26T04:03:21;9.20;;;5.65;;
45764;SDS011;31474;45.332;10.230;2023-01-26T04:06:05;11.98;;;5.38;;
45764;SDS011;31474;45.332;10.230;2023-01-26T04:08:49;8.57;;;5.93;;
45764;SDS011;31474;45.332;10.230;2023-01-26T04:11:15;12.27;;;5.57;;
45764;SDS011;31474;45.332;10.230;2023-01-26T04:13:41;11.43;;;6.53;;
45764;SDS011;31474;45.332;10.230;2023-01-26T04:16:25;11.15;;;5.80;;
45764;SDS011;31474;45.332;10.230;2023-01-26T04:19:09;8.40;;;5.25;;
45764;SDS011;31474;45.332;10.230;2023-01-26T04:21:53;13.35;;;6.15;;
45764;SDS011;31474;45.332;10.230;2023-01-26T04:24:19;9.93;;;5.45;;
45764;SDS011;31474;45.332;10.230;2023-01-26T04:26:46;14.30;;;6.80;;
45764;SDS011;31474;45.332;10.230;2023-01-26T04:29:13;8.63;;;5.53;;
45764;SDS011;31474;45.332;10.230;2023-01-26T04:31:39;13.77;;;6.40;;
45764;SDS011;31474;45.332;10.230;2023-01-26T04:34:09;10.40;;;5.72;;
45764;SDS011;31474;45.332;10.230;2023-01-26T04:36:36;12.18;;;6.28;;
45764;SDS011;31474;45.332;10.230;2023-01-26T04:39:02;11.50;;;6.03;;
45764;SDS011;31474;45.332;10.230;2023-01-26T04:41:29;14.05;;;7.68;;
45764;SDS011;31474;45.332;10.230;2023-01-26T04:43:55;10.25;;;5.43;;
45764;SDS011;31474;45.332;10.230;2023-01-26T04:46:20;10.65;;;6.45;;
45764;SDS011;31474;45.332;10.230;2023-01-26T04:48:46;11.02;;;5.80;;
45764;SDS011;31474;45.332;10.230;2023-01-26T04:51:13;11.48;;;6.43;;
45764;SDS011;31474;45.332;10.230;2023-01-26T04:53:40;13.80;;;7.25;;
45764;SDS011;31474;45.332;10.230;2023-01-26T04:56:06;10.35;;;5.53;;
45764;SDS011;31474;45.332;10.230;2023-01-26T04:58:38;10.80;;;5.82;;
45764;SDS011;31474;45.332;10.230;2023-01-26T05:01:04;8.75;;;5.68;;
45764;SDS011;31474;45.332;10.230;2023-01-26T05:03:31;15.70;;;6.13;;
45764;SDS011;31474;45.332;10.230;2023-01-26T05:05:56;10.52;;;6.07;;
45764;SDS011;31474;45.332;10.230;2023-01-26T05:08:22;11.45;;;5.95;;
45764;SDS011;31474;45.332;10.230;2023-01-26T05:10:48;11.80;;;6.20;;
45764;SDS011;31474;45.332;10.230;2023-01-26T05:13:13;12.02;;;6.22;;
45764;SDS011;31474;45.332;10.230;2023-01-26T05:15:39;10.80;;;5.32;;
45764;SDS011;31474;45.332;10.230;2023-01-26T05:18:05;10.30;;;6.00;;
45764;SDS011;31474;45.332;10.230;2023-01-26T05:20:31;10.52;;;6.10;;
45764;SDS011;31474;45.332;10.230;2023-01-26T05:22:57;9.57;;;4.95;;
45764;SDS011;31474;45.332;10.230;2023-01-26T05:25:23;11.10;;;6.45;;
45764;SDS011;31474;45.332;10.230;2023-01-26T05:27:49;13.07;;;6.05;;
45764;SDS011;31474;45.332;10.230;2023-01-26T05:30:15;11.10;;;6.57;;
45764;SDS011;31474;45.332;10.230;2023-01-26T05:32:41;8.57;;;5.70;;
45764;SDS011;31474;45.332;10.230;2023-01-26T05:35:07;10.70;;;6.68;;
45764;SDS011;31474;45.332;10.230;2023-01-26T05:37:33;12.85;;;6.05;;
45764;SDS011;31474;45.332;10.230;2023-01-26T05:39:58;15.27;;;6.03;;
45764;SDS011;31474;45.332;10.230;2023-01-26T05:42:24;11.15;;;6.55;;
45764;SDS011;31474;45.332;10.230;2023-01-26T05:44:50;14.82;;;7.07;;
45764;SDS011;31474;45.332;10.230;2023-01-26T05:47:16;9.68;;;6.10;;
45764;SDS011;31474;45.332;10.230;2023-01-26T05:49:42;11.43;;;6.57;;
45764;SDS011;31474;45.332;10.230;2023-01-26T05:52:19;14.43;;;6.65;;
45764;SDS011;31474;45.332;10.230;2023-01-26T05:54:45;14.70;;;7.28;;
45764;SDS011;31474;45.332;10.230;2023-01-26T05:57:11;14.13;;;6.55;;
45764;SDS011;31474;45.332;10.230;2023-01-26T05:59:37;15.25;;;8.07;;
45764;SDS011;31474;45.332;10.230;2023-01-26T06:02:03;15.77;;;7.55;;
45764;SDS011;31474;45.332;10.230;2023-01-26T06:04:29;14.07;;;8.90;;
45764;SDS011;31474;45.332;10.230;2023-01-26T06:06:57;25.58;;;8.20;;
45764;SDS011;31474;45.332;10.230;2023-01-26T06:09:23;15.77;;;7.50;;
45764;SDS011;31474;45.332;10.230;2023-01-26T06:11:49;8.45;;;5.85;;
45764;SDS011;31474;45.332;10.230;2023-01-26T06:14:15;14.85;;;7.47;;
45764;SDS011;31474;45.332;10.230;2023-01-26T06:16:41;17.80;;;7.35;;
45764;SDS011;31474;45.332;10.230;2023-01-26T06:19:07;13.82;;;6.28;;
45764;SDS011;31474;45.332;10.230;2023-01-26T06:21:34;14.07;;;6.38;;
45764;SDS011;31474;45.332;10.230;2023-01-26T06:24:00;15.05;;;7.28;;
45764;SDS011;31474;45.332;10.230;2023-01-26T06:26:26;12.38;;;6.63;;
45764;SDS011;31474;45.332;10.230;2023-01-26T06:28:52;12.82;;;7.05;;
45764;SDS011;31474;45.332;10.230;2023-01-26T06:31:18;16.40;;;7.03;;
45764;SDS011;31474;45.332;10.230;2023-01-26T06:33:44;11.07;;;6.10;;
45764;SDS011;31474;45.332;10.230;2023-01-26T06:36:11;14.57;;;7.97;;
45764;SDS011;31474;45.332;10.230;2023-01-26T06:38:38;9.68;;;6.53;;
45764;SDS011;31474;45.332;10.230;2023-01-26T06:41:10;17.38;;;7.70;;
45764;SDS011;31474;45.332;10.230;2023-01-26T06:43:35;13.23;;;6.45;;
45764;SDS011;31474;45.332;10.230;2023-01-26T06:46:01;15.82;;;7.63;;
45764;SDS011;31474;45.332;10.230;2023-01-26T06:48:30;10.48;;;6.25;;
45764;SDS011;31474;45.332;10.230;2023-01-26T06:51:03;16.33;;;7.53;;
45764;SDS011;31474;45.332;10.230;2023-01-26T06:54:11;11.68;;;6.43;;
45764;SDS011;31474;45.332;10.230;2023-01-26T06:56:19;15.02;;;6.90;;
45764;SDS011;31474;45.332;10.230;2023-01-26T06:58:46;13.07;;;5.90;;
45764;SDS011;31474;45.332;10.230;2023-01-26T07:01:13;16.02;;;7.50;;
45764;SDS011;31474;45.332;10.230;2023-01-26T07:03:42;10.60;;;5.88;;
45764;SDS011;31474;45.332;10.230;2023-01-26T07:06:07;14.48;;;8.10;;
45764;SDS011;31474;45.332;10.230;2023-01-26T07:08:37;15.15;;;7.30;;
45764;SDS011;31474;45.332;10.230;2023-01-26T07:11:03;18.40;;;7.32;;
45764;SDS011;31474;45.332;10.230;2023-01-26T07:13:29;19.33;;;8.88;;
45764;SDS011;31474;45.332;10.230;2023-01-26T07:16:01;17.35;;;7.05;;
45764;SDS011;31474;45.332;10.230;2023-01-26T07:18:37;13.00;;;7.35;;
45764;SDS011;31474;45.332;10.230;2023-01-26T07:21:04;13.60;;;7.78;;
45764;SDS011;31474;45.332;10.230;2023-01-26T07:23:43;10.85;;;6.22;;
45764;SDS011;31474;45.332;10.230;2023-01-26T07:26:09;12.93;;;6.55;;
45764;SDS011;31474;45.332;10.230;2023-01-26T07:28:35;11.85;;;6.55;;
45764;SDS011;31474;45.332;10.230;2023-01-26T07:31:01;17.10;;;8.25;;
45764;SDS011;31474;45.332;10.230;2023-01-26T07:33:28;11.45;;;8.07;;
45764;SDS011;31474;45.332;10.230;2023-01-26T07:35:54;23.02;;;9.52;;
45764;SDS011;31474;45.332;10.230;2023-01-26T07:38:20;20.23;;;9.93;;
45764;SDS011;31474;45.332;10.230;2023-01-26T07:40:46;18.20;;;9.48;;
45764;SDS011;31474;45.332;10.230;2023-01-26T07:43:13;17.80;;;10.75;;
45764;SDS011;31474;45.332;10.230;2023-01-26T07:45:39;26.50;;;14.68;;
45764;SDS011;31474;45.332;10.230;2023-01-26T07:48:08;26.92;;;14.15;;
45764;SDS011;31474;45.332;10.230;2023-01-26T07:50:34;12.77;;;8.60;;
45764;SDS011;31474;45.332;10.230;2023-01-26T07:53:00;16.25;;;9.20;;
45764;SDS011;31474;45.332;10.230;2023-01-26T07:55:25;17.13;;;8.40;;
45764;SDS011;31474;45.332;10.230;2023-01-26T07:57:51;16.45;;;8.75;;
45764;SDS011;31474;45.332;10.230;2023-01-26T08:00:17;9.70;;;6.38;;
45764;SDS011;31474;45.332;10.230;2023-01-26T08:02:43;12.02;;;7.30;;
45764;SDS011;31474;45.332;10.230;2023-01-26T08:05:09;11.07;;;6.97;;
45764;SDS011;31474;45.332;10.230;2023-01-26T08:07:34;13.77;;;6.75;;
45764;SDS011;31474;45.332;10.230;2023-01-26T08:10:00;12.77;;;8.13;;
45764;SDS011;31474;45.332;10.230;2023-01-26T08:12:26;14.65;;;7.15;;
45764;SDS011;31474;45.332;10.230;2023-01-26T08:14:51;13.13;;;7.85;;
45764;SDS011;31474;45.332;10.230;2023-01-26T08:17:17;12.63;;;6.68;;
45764;SDS011;31474;45.332;10.230;2023-01-26T08:19:43;17.50;;;9.43;;
45764;SDS011;31474;45.332;10.230;2023-01-26T08:22:10;15.38;;;7.85;;
45764;SDS011;31474;45.332;10.230;2023-01-26T08:24:35;12.48;;;6.82;;
45764;SDS011;31474;45.332;10.230;2023-01-26T08:27:01;20.38;;;9.52;;
45764;SDS011;31474;45.332;10.230;2023-01-26T08:29:27;14.20;;;7.75;;
45764;SDS011;31474;45.332;10.230;2023-01-26T08:31:52;16.17;;;8.35;;
45764;SDS011;31474;45.332;10.230;2023-01-26T08:34:18;18.42;;;9.48;;
45764;SDS011;31474;45.332;10.230;2023-01-26T08:36:46;13.18;;;6.55;;
45764;SDS011;31474;45.332;10.230;2023-01-26T08:39:12;15.73;;;8.38;;
45764;SDS011;31474;45.332;10.230;2023-01-26T08:41:38;15.88;;;8.52;;
45764;SDS011;31474;45.332;10.230;2023-01-26T08:44:04;11.90;;;7.32;;
45764;SDS011;31474;45.332;10.230;2023-01-26T08:46:30;13.93;;;8.25;;
45764;SDS011;31474;45.332;10.230;2023-01-26T08:48:55;13.38;;;6.78;;
45764;SDS011;31474;45.332;10.230;2023-01-26T08:51:21;13.55;;;7.07;;
45764;SDS011;31474;45.332;10.230;2023-01-26T08:53:46;10.55;;;6.65;;
45764;SDS011;31474;45.332;10.230;2023-01-26T08:56:12;10.43;;;6.50;;
45764;SDS011;31474;45.332;10.230;2023-01-26T08:58:38;11.20;;;6.88;;
45764;SDS011;31474;45.332;10.230;2023-01-26T09:01:04;11.30;;;6.75;;
45764;SDS011;31474;45.332;10.230;2023-01-26T09:03:32;11.05;;;6.60;;
45764;SDS011;31474;45.332;10.230;2023-01-26T09:05:59;10.75;;;6.53;;
45764;SDS011;31474;45.332;10.230;2023-01-26T09:08:25;12.27;;;6.55;;
45764;SDS011;31474;45.332;10.230;2023-01-26T09:10:51;10.55;;;6.57;;
45764;SDS011;31474;45.332;10.230;2023-01-26T09:13:17;10.82;;;5.57;;
45764;SDS011;31474;45.332;10.230;2023-01-26T09:15:42;23.85;;;10.98;;
45764;SDS011;31474;45.332;10.230;2023-01-26T09:18:08;12.65;;;8.02;;
45764;SDS011;31474;45.332;10.230;2023-01-26T09:20:36;15.40;;;7.63;;
45764;SDS011;31474;45.332;10.230;2023-01-26T09:23:02;11.25;;;6.47;;
45764;SDS011;31474;45.332;10.230;2023-01-26T09:25:28;10.23;;;6.60;;
45764;SDS011;31474;45.332;10.230;2023-01-26T09:27:54;10.38;;;6.65;;
45764;SDS011;31474;45.332;10.230;2023-01-26T09:30:20;11.80;;;6.45;;
45764;SDS011;31474;45.332;10.230;2023-01-26T09:32:46;14.27;;;7.20;;
45764;SDS011;31474;45.332;10.230;2023-01-26T09:35:11;15.45;;;6.95;;
45764;SDS011;31474;45.332;10.230;2023-01-26T09:37:37;18.17;;;8.07;;
45764;SDS011;31474;45.332;10.230;2023-01-26T09:40:03;11.88;;;6.78;;
45764;SDS011;31474;45.332;10.230;2023-01-26T09:50:30;8.98;;;6.03;;
45764;SDS011;31474;45.332;10.230;2023-01-26T09:53:03;13.55;;;6.72;;
45764;SDS011;31474;45.332;10.230;2023-01-26T09:55:36;11.60;;;6.32;;
45764;SDS011;31474;45.332;10.230;2023-01-26T09:58:05;15.38;;;7.28;;
45764;SDS011;31474;45.332;10.230;2023-01-26T10:00:38;13.75;;;5.97;;
45764;SDS011;31474;45.332;10.230;2023-01-26T10:08:26;15.68;;;7.20;;
45764;SDS011;31474;45.332;10.230;2023-01-26T10:10:56;19.02;;;7.70;;
45764;SDS011;31474;45.332;10.230;2023-01-26T10:13:22;10.98;;;6.70;;
45764;SDS011;31474;45.332;10.230;2023-01-26T10:16:07;16.33;;;8.55;;
45764;SDS011;31474;45.332;10.230;2023-01-26T10:18:36;12.13;;;7.28;;
45764;SDS011;31474;45.332;10.230;2023-01-26T10:21:18;12.57;;;7.85;;
45764;SDS011;31474;45.332;10.230;2023-01-26T10:23:48;18.05;;;9.65;;
45764;SDS011;31474;45.332;10.230;2023-01-26T10:26:16;14.85;;;9.02;;
45764;SDS011;31474;45.332;10.230;2023-01-26T10:28:44;15.32;;;8.55;;
45764;SDS011;31474;45.332;10.230;2023-01-26T10:31:15;14.25;;;6.88;;
45764;SDS011;31474;45.332;10.230;2023-01-26T10:33:48;13.80;;;7.03;;
45764;SDS011;31474;45.332;10.230;2023-01-26T10:36:17;13.18;;;7.63;;
45764;SDS011;31474;45.332;10.230;2023-01-26T10:38:43;13.55;;;6.55;;
45764;SDS011;31474;45.332;10.230;2023-01-26T10:41:31;13.63;;;7.10;;
45764;SDS011;31474;45.332;10.230;2023-01-26T10:48:55;11.35;;;6.80;;
45764;SDS011;31474;45.332;10.230;2023-01-26T10:51:27;10.13;;;5.78;;
45764;SDS011;31474;45.332;10.230;2023-01-26T10:56:49;11.30;;;6.70;;
45764;SDS011;31474;45.332;10.230;2023-01-26T10:59:24;9.20;;;5.82;;
45764;SDS011;31474;45.332;10.230;2023-01-26T11:01:58;12.80;;;6.72;;
45764;SDS011;31474;45.332;10.230;2023-01-26T11:07:34;11.55;;;6.20;;
45764;SDS011;31474;45.332;10.230;2023-01-26T11:12:41;14.52;;;6.78;;
45764;SDS011;31474;45.332;10.230;2023-01-26T11:15:20;14.30;;;6.78;;
45764;SDS011;31474;45.332;10.230;2023-01-26T11:20:46;8.90;;;6.20;;
45764;SDS011;31474;45.332;10.230;2023-01-26T11:28:47;11.95;;;5.68;;
45764;SDS011;31474;45.332;10.230;2023-01-26T11:36:51;11.32;;;7.13;;
45764;SDS011;31474;45.332;10.230;2023-01-26T11:40:08;9.52;;;5.93;;
45764;SDS011;31474;45.332;10.230;2023-01-26T11:48:02;12.60;;;6.40;;
45764;SDS011;31474;45.332;10.230;2023-01-26T11:50:34;11.55;;;6.13;;
45764;SDS011;31474;45.332;10.230;2023-01-26T12:01:12;10.55;;;6.45;;
45764;SDS011;31474;45.332;10.230;2023-01-26T12:03:49;17.80;;;8.80;;
45764;SDS011;31474;45.332;10.230;2023-01-26T12:06:19;11.23;;;6.47;;
45764;SDS011;31474;45.332;10.230;2023-01-26T12:09:16;12.55;;;6.35;;
45764;SDS011;31474;45.332;10.230;2023-01-26T12:11:49;12.40;;;6.50;;
45764;SDS011;31474;45.332;10.230;2023-01-26T12:22:13;14.02;;;6.97;;
45764;SDS011;31474;45.332;10.230;2023-01-26T12:24:46;10.57;;;6.75;;
45764;SDS011;31474;45.332;10.230;2023-01-26T12:27:21;13.32;;;6.45;;
45764;SDS011;31474;45.332;10.230;2023-01-26T12:30:07;15.23;;;6.82;;
45764;SDS011;31474;45.332;10.230;2023-01-26T12:32:46;14.48;;;7.30;;
45764;SDS011;31474;45.332;10.230;2023-01-26T12:35:11;13.25;;;7.53;;
45764;SDS011;31474;45.332;10.230;2023-01-26T12:37:44;12.27;;;6.70;;
45764;SDS011;31474;45.332;10.230;2023-01-26T12:40:31;13.77;;;8.05;;
45764;SDS011;31474;45.332;10.230;2023-01-26T12:43:30;10.63;;;6.85;;
45764;SDS011;31474;45.332;10.230;2023-01-26T12:46:11;15.50;;;7.93;;
45764;SDS011;31474;45.332;10.230;2023-01-26T12:51:14;11.60;;;6.72;;
45764;SDS011;31474;45.332;10.230;2023-01-26T12:53:56;13.57;;;7.53;;
45764;SDS011;31474;45.332;10.230;2023-01-26T12:56:32;10.85;;;6.65;;
45764;SDS011;31474;45.332;10.230;2023-01-26T12:59:11;14.20;;;7.68;;
45764;SDS011;31474;45.332;10.230;2023-01-26T13:01:48;12.77;;;7.35;;
45764;SDS011;31474;45.332;10.230;2023-01-26T13:04:14;11.95;;;7.05;;
45764;SDS011;31474;45.332;10.230;2023-01-26T13:06:41;11.82;;;7.72;;
45764;SDS011;31474;45.332;10.230;2023-01-26T13:11:52;11.85;;;6.93;;
45764;SDS011;31474;45.332;10.230;2023-01-26T13:14:30;13.02;;;7.63;;
45764;SDS011;31474;45.332;10.230;2023-01-26T13:24:47;14.68;;;7.63;;
45764;SDS011;31474;45.332;10.230;2023-01-26T13:29:58;12.02;;;6.95;;
45764;SDS011;31474;45.332;10.230;2023-01-26T13:34:50;11.30;;;6.75;;
45764;SDS011;31474;45.332;10.230;2023-01-26T13:37:43;11.57;;;7.57;;
45764;SDS011;31474;45.332;10.230;2023-01-26T13:40:19;11.18;;;6.80;;
45764;SDS011;31474;45.332;10.230;2023-01-26T13:42:54;15.68;;;8.60;;
45764;SDS011;31474;45.332;10.230;2023-01-26T13:48:45;11.85;;;7.07;;
45764;SDS011;31474;45.332;10.230;2023-01-26T13:51:12;10.95;;;6.68;;
45764;SDS011;31474;45.332;10.230;2023-01-26T13:53:52;13.20;;;8.15;;
45764;SDS011;31474;45.332;10.230;2023-01-26T13:56:35;15.73;;;8.05;;
45764;SDS011;31474;45.332;10.230;2023-01-26T14:01:31;14.23;;;8.00;;
45764;SDS011;31474;45.332;10.230;2023-01-26T14:04:01;14.55;;;7.97;;
45764;SDS011;31474;45.332;10.230;2023-01-26T14:06:28;14.50;;;8.40;;
45764;SDS011;31474;45.332;10.230;2023-01-26T14:08:54;15.73;;;9.05;;
45764;SDS011;31474;45.332;10.230;2023-01-26T14:11:23;13.45;;;8.10;;
45764;SDS011;31474;45.332;10.230;2023-01-26T14:13:52;15.55;;;8.60;;
45764;SDS011;31474;45.332;10.230;2023-01-26T14:16:30;12.00;;;7.85;;
45764;SDS011;31474;45.332;10.230;2023-01-26T14:19:29;12.95;;;8.15;;
45764;SDS011;31474;45.332;10.230;2023-01-26T14:24:14;13.25;;;8.23;;
45764;SDS011;31474;45.332;10.230;2023-01-26T14:26:39;11.70;;;6.97;;
45764;SDS011;31474;45.332;10.230;2023-01-26T14:29:10;12.15;;;8.30;;
45764;SDS011;31474;45.332;10.230;2023-01-26T14:31:42;13.68;;;7.72;;
45764;SDS011;31474;45.332;10.230;2023-01-26T14:34:10;13.18;;;7.38;;
45764;SDS011;31474;45.332;10.230;2023-01-26T14:36:36;14.32;;;7.65;;
45764;SDS011;31474;45.332;10.230;2023-01-26T14:39:17;13.82;;;8.65;;
45764;SDS011;31474;45.332;10.230;2023-01-26T14:41:44;16.98;;;10.00;;
45764;SDS011;31474;45.332;10.230;2023-01-26T14:44:11;18.55;;;10.75;;
45764;SDS011;31474;45.332;10.230;2023-01-26T14:46:58;14.93;;;7.72;;
45764;SDS011;31474;45.332;10.230;2023-01-26T14:52:49;15.60;;;8.68;;
45764;SDS011;31474;45.332;10.230;2023-01-26T14:55:10;11.82;;;7.60;;
45764;SDS011;31474;45.332;10.230;2023-01-26T14:57:44;20.10;;;8.27;;
45764;SDS011;31474;45.332;10.230;2023-01-26T15:00:21;12.73;;;7.97;;
45764;SDS011;31474;45.332;10.230;2023-01-26T15:02:55;14.77;;;8.70;;
45764;SDS011;31474;45.332;10.230;2023-01-26T15:05:29;13.82;;;9.15;;
45764;SDS011;31474;45.332;10.230;2023-01-26T15:08:19;16.92;;;9.05;;
45764;SDS011;31474;45.332;10.230;2023-01-26T15:10:56;16.75;;;9.05;;
45764;SDS011;31474;45.332;10.230;2023-01-26T15:13:45;13.10;;;8.05;;
45764;SDS011;31474;45.332;10.230;2023-01-26T15:16:22;15.30;;;8.57;;
45764;SDS011;31474;45.332;10.230;2023-01-26T15:18:59;15.80;;;8.50;;
45764;SDS011;31474;45.332;10.230;2023-01-26T15:21:35;16.23;;;9.63;;
45764;SDS011;31474;45.332;10.230;2023-01-26T15:24:11;17.10;;;9.40;;
45764;SDS011;31474;45.332;10.230;2023-01-26T15:26:38;14.98;;;9.30;;
45764;SDS011;31474;45.332;10.230;2023-01-26T15:29:23;16.13;;;10.07;;
45764;SDS011;31474;45.332;10.230;2023-01-26T15:31:51;18.92;;;11.02;;
45764;SDS011;31474;45.332;10.230;2023-01-26T15:34:30;17.88;;;9.57;;
45764;SDS011;31474;45.332;10.230;2023-01-26T15:37:01;17.08;;;10.68;;
45764;SDS011;31474;45.332;10.230;2023-01-26T15:39:46;18.58;;;10.70;;
45764;SDS011;31474;45.332;10.230;2023-01-26T15:42:12;15.82;;;11.18;;
45764;SDS011;31474;45.332;10.230;2023-01-26T15:44:39;17.73;;;9.68;;
45764;SDS011;31474;45.332;10.230;2023-01-26T15:47:09;19.60;;;10.80;;
45764;SDS011;31474;45.332;10.230;2023-01-26T15:49:36;17.05;;;9.98;;
45764;SDS011;31474;45.332;10.230;2023-01-26T15:52:02;21.40;;;10.20;;
45764;SDS011;31474;45.332;10.230;2023-01-26T15:54:33;17.80;;;10.20;;
45764;SDS011;31474;45.332;10.230;2023-01-26T15:56:59;19.10;;;10.15;;
45764;SDS011;31474;45.332;10.230;2023-01-26T15:59:24;18.00;;;10.48;;
45764;SDS011;31474;45.332;10.230;2023-01-26T16:01:50;19.20;;;10.45;;
45764;SDS011;31474;45.332;10.230;2023-01-26T16:04:16;20.42;;;9.73;;
45764;SDS011;31474;45.332;10.230;2023-01-26T16:06:41;18.08;;;9.93;;
45764;SDS011;31474;45.332;10.230;2023-01-26T16:09:07;15.07;;;8.80;;
45764;SDS011;31474;45.332;10.230;2023-01-26T16:11:34;17.40;;;9.82;;
45764;SDS011;31474;45.332;10.230;2023-01-26T16:14:01;14.98;;;8.93;;